Time;durP1;ratioP1;P1;durP2;ratioP2;P2;SDS_P1;SDS_P2;PMS_P1;PMS_P2;Temp;Humidity;BMP_temperature;BMP_pressure;BME280_temperature;BME280_humidity;BME280_pressure;Samples;Min_cycle;Max_cycle;Signal;HPM_P1;HPM_P2
2022/02/12 00:00:29;;;;;;;1.87;0.80;;;4.50;99.90;;;;;;5047451;28;20223;-76
2022/02/12 00:02:56;;;;;;;1.33;1.03;;;4.50;99.90;;;;;;5053396;28;20706;-76
2022/02/12 00:05:25;;;;;;;1.43;0.83;;;4.50;99.90;;;;;;5053045;28;20217;-76
2022/02/12 00:07:55;;;;;;;1.10;0.90;;;4.50;99.90;;;;;;5053328;28;20194;-75
2022/02/12 00:10:23;;;;;;;1.43;0.90;;;4.50;99.90;;;;;;5050596;28;20230;-76
2022/02/12 00:12:51;;;;;;;1.47;0.83;;;4.50;99.90;;;;;;5048379;28;20205;-75
2022/02/12 00:15:18;;;;;;;0.80;0.80;;;4.40;99.90;;;;;;5050232;28;20264;-75
2022/02/12 00:17:45;;;;;;;1.03;0.70;;;4.40;99.90;;;;;;5050817;28;20283;-75
2022/02/12 00:20:14;;;;;;;0.97;0.50;;;4.40;99.90;;;;;;5049556;28;20260;-75
2022/02/12 00:22:42;;;;;;;0.97;0.80;;;4.40;99.90;;;;;;5051352;28;20515;-75
2022/02/12 00:25:11;;;;;;;0.60;0.60;;;4.40;99.90;;;;;;5049316;28;20193;-75
2022/02/12 00:27:38;;;;;;;0.93;0.60;;;4.40;99.90;;;;;;5044198;28;20194;-75
2022/02/12 00:30:06;;;;;;;0.50;0.50;;;4.40;99.90;;;;;;5050205;28;20234;-75
2022/02/12 00:32:34;;;;;;;0.70;0.60;;;4.30;99.90;;;;;;5044537;28;20186;-75
2022/02/12 00:35:01;;;;;;;0.60;0.60;;;4.30;99.90;;;;;;5049612;28;20259;-75
2022/02/12 00:37:30;;;;;;;1.30;0.70;;;4.30;99.90;;;;;;5049821;28;20201;-75
2022/02/12 00:39:57;;;;;;;0.60;0.60;;;4.30;99.90;;;;;;5047287;28;20197;-75
2022/02/12 00:42:26;;;;;;;2.23;0.87;;;4.30;99.90;;;;;;5049319;28;20202;-75
2022/02/12 00:44:53;;;;;;;1.37;0.70;;;4.20;99.90;;;;;;5050071;28;20273;-75
2022/02/12 00:47:21;;;;;;;1.77;0.60;;;4.20;99.90;;;;;;5049235;28;20212;-75
2022/02/12 00:49:48;;;;;;;1.13;0.90;;;4.20;99.90;;;;;;5052388;28;20205;-76
2022/02/12 00:52:16;;;;;;;2.83;1.00;;;4.20;99.90;;;;;;5052497;28;20213;-75
2022/02/12 00:54:43;;;;;;;1.17;0.93;;;4.20;99.90;;;;;;5054439;28;20193;-75
2022/02/12 00:57:10;;;;;;;1.50;0.90;;;4.20;99.90;;;;;;5051988;28;20221;-75
2022/02/12 00:59:39;;;;;;;1.00;0.60;;;4.20;99.90;;;;;;5053789;28;20193;-75
2022/02/12 01:02:06;;;;;;;0.57;0.57;;;4.20;99.90;;;;;;5053276;28;20194;-75
2022/02/12 01:04:33;;;;;;;1.47;0.80;;;4.20;99.90;;;;;;5052627;28;20225;-75
2022/02/12 01:07:00;;;;;;;1.97;1.40;;;4.10;99.90;;;;;;5054624;28;20378;-75
2022/02/12 01:09:27;;;;;;;3.00;1.20;;;4.10;99.90;;;;;;5087849;28;20208;-75
2022/02/12 01:11:57;;;;;;;1.97;0.90;;;4.10;99.90;;;;;;5049756;28;20202;-75
2022/02/12 01:14:24;;;;;;;1.20;0.90;;;4.00;99.90;;;;;;5047983;28;20221;-75
2022/02/12 01:16:53;;;;;;;1.67;0.90;;;4.00;99.90;;;;;;5047362;28;20680;-74
2022/02/12 01:19:20;;;;;;;2.53;0.83;;;4.00;99.90;;;;;;5054113;28;20193;-75
2022/02/12 01:21:48;;;;;;;1.30;1.10;;;4.00;99.90;;;;;;5051639;28;20198;-75
2022/02/12 01:24:16;;;;;;;0.60;0.60;;;3.90;99.90;;;;;;5049627;28;20244;-74
2022/02/12 01:26:43;;;;;;;3.80;1.30;;;4.00;99.90;;;;;;5054023;28;20209;-75
2022/02/12 01:29:10;;;;;;;1.20;0.80;;;4.00;99.90;;;;;;5057947;28;20201;-75
2022/02/12 01:31:38;;;;;;;0.50;0.50;;;3.90;99.90;;;;;;5051685;28;20317;-74
2022/02/12 01:34:06;;;;;;;1.03;0.83;;;3.90;99.90;;;;;;5052928;28;20626;-74
2022/02/12 01:36:33;;;;;;;0.80;0.70;;;3.90;99.90;;;;;;5058000;28;20252;-74
2022/02/12 01:39:00;;;;;;;1.20;0.70;;;3.80;99.90;;;;;;5052416;28;20210;-75
2022/02/12 01:41:28;;;;;;;1.30;0.70;;;4.00;99.90;;;;;;5051714;28;20205;-75
2022/02/12 01:43:57;;;;;;;0.83;0.60;;;3.80;99.90;;;;;;5063672;28;20687;-74
2022/02/12 01:46:24;;;;;;;1.87;0.90;;;3.90;99.90;;;;;;5043846;28;20228;-74
2022/02/12 01:48:51;;;;;;;0.93;0.60;;;3.90;99.90;;;;;;5053475;28;20205;-75
2022/02/12 01:51:22;;;;;;;0.60;0.60;;;3.80;99.90;;;;;;5051334;28;20335;-74
2022/02/12 01:53:49;;;;;;;0.63;0.60;;;3.80;99.90;;;;;;5047286;28;20749;-75
2022/02/12 01:56:16;;;;;;;3.67;0.87;;;3.80;99.90;;;;;;5058418;28;20239;-74
2022/02/12 01:58:43;;;;;;;0.83;0.80;;;3.80;99.90;;;;;;5050444;28;20263;-74
2022/02/12 02:01:10;;;;;;;0.60;0.60;;;3.80;99.90;;;;;;5051333;28;20201;-75
2022/02/12 02:03:38;;;;;;;0.67;0.60;;;3.80;99.90;;;;;;5051257;28;20216;-74
2022/02/12 02:06:06;;;;;;;1.77;0.63;;;3.80;99.90;;;;;;5051931;28;20204;-75
2022/02/12 02:08:35;;;;;;;1.63;0.97;;;3.80;99.90;;;;;;5052347;28;20205;-74
2022/02/12 02:11:02;;;;;;;1.40;0.80;;;3.80;99.90;;;;;;5048441;28;20255;-75
2022/02/12 02:13:29;;;;;;;1.13;0.70;;;3.70;99.90;;;;;;5049958;28;20669;-75
2022/02/12 02:15:56;;;;;;;1.27;0.87;;;3.80;99.90;;;;;;5051183;28;20217;-75
2022/02/12 02:18:23;;;;;;;0.50;0.50;;;3.70;99.90;;;;;;5055144;28;20536;-75
2022/02/12 02:20:52;;;;;;;0.73;0.73;;;3.70;99.90;;;;;;5088375;28;20703;-74
2022/02/12 02:23:23;;;;;;;0.87;0.70;;;3.70;99.90;;;;;;5057026;28;20221;-75
2022/02/12 02:25:51;;;;;;;0.63;0.60;;;3.60;99.90;;;;;;5056356;28;20608;-75
2022/02/12 02:28:18;;;;;;;0.50;0.50;;;3.70;99.90;;;;;;5049592;28;20626;-74
2022/02/12 02:30:45;;;;;;;1.30;0.83;;;3.70;99.90;;;;;;5049077;28;20721;-75
2022/02/12 02:33:12;;;;;;;0.87;0.70;;;3.70;99.90;;;;;;5058356;28;20739;-75
2022/02/12 02:35:39;;;;;;;3.53;1.37;;;3.70;99.90;;;;;;5046441;28;20252;-74
2022/02/12 02:38:08;;;;;;;5.70;1.13;;;3.70;99.90;;;;;;5043486;28;20201;-75
2022/02/12 02:40:37;;;;;;;1.73;1.10;;;3.70;99.90;;;;;;5038121;28;20198;-74
2022/02/12 02:43:05;;;;;;;0.80;0.80;;;3.60;99.90;;;;;;5056339;28;20193;-74
2022/02/12 02:45:33;;;;;;;1.50;0.80;;;3.60;99.90;;;;;;5044113;28;20256;-74
2022/02/12 02:48:01;;;;;;;0.70;0.70;;;3.60;99.90;;;;;;5058082;28;20612;-75
2022/02/12 02:56:02;;;;;;;1.30;0.60;;;3.50;99.90;;;;;;5037848;28;20709;-75
2022/02/12 02:58:33;;;;;;;0.60;0.60;;;3.50;99.90;;;;;;5044570;28;20609;-74
2022/02/12 03:01:00;;;;;;;0.63;0.63;;;3.60;99.90;;;;;;5048806;28;20696;-74
2022/02/12 03:03:29;;;;;;;0.53;0.50;;;3.60;99.90;;;;;;5049524;28;20198;-74
2022/02/12 03:05:57;;;;;;;1.83;0.43;;;3.50;99.90;;;;;;5051698;28;20194;-74
2022/02/12 03:08:24;;;;;;;2.33;1.00;;;3.50;99.90;;;;;;5051411;28;20716;-75
2022/02/12 03:10:51;;;;;;;1.50;1.00;;;3.70;99.90;;;;;;5050732;28;20201;-75
2022/02/12 03:13:20;;;;;;;1.73;1.07;;;3.50;99.90;;;;;;5047222;28;20203;-74
2022/02/12 03:15:47;;;;;;;1.67;0.80;;;3.60;99.90;;;;;;5051461;28;20464;-75
2022/02/12 03:18:14;;;;;;;2.40;0.73;;;3.50;99.70;;;;;;5049369;28;20221;-75
2022/02/12 03:20:41;;;;;;;4.40;1.17;;;3.50;99.80;;;;;;5052151;28;20267;-74
2022/02/12 03:23:09;;;;;;;1.37;1.00;;;3.50;99.60;;;;;;5048933;28;20251;-76
2022/02/12 03:25:36;;;;;;;4.17;1.30;;;3.50;99.60;;;;;;5045225;28;20620;-76
2022/02/12 03:28:06;;;;;;;2.47;0.97;;;3.50;99.40;;;;;;5052570;28;20247;-76
2022/02/12 03:30:35;;;;;;;2.03;1.00;;;3.40;99.40;;;;;;5051988;28;20229;-75
2022/02/12 03:33:03;;;;;;;4.57;1.27;;;4.70;99.90;;;;;;5055350;28;20193;-75
2022/02/12 03:35:30;;;;;;;1.23;1.07;;;3.40;99.40;;;;;;5053486;28;20213;-75
2022/02/12 03:38:07;;;;;;;1.70;1.10;;;3.30;99.30;;;;;;5063164;28;20336;-75
2022/02/12 03:40:35;;;;;;;4.17;1.50;;;3.40;99.40;;;;;;5059158;28;20300;-75
2022/02/12 03:43:03;;;;;;;2.87;1.60;;;3.30;99.30;;;;;;5040374;28;20202;-75
2022/02/12 03:45:30;;;;;;;2.20;1.43;;;3.20;99.70;;;;;;5039283;28;20266;-75
2022/02/12 03:47:59;;;;;;;2.43;1.00;;;3.20;99.50;;;;;;5060742;28;20218;-75
2022/02/12 03:50:27;;;;;;;1.27;0.90;;;3.20;99.70;;;;;;5050206;28;20624;-75
2022/02/12 03:52:54;;;;;;;3.43;1.20;;;3.20;99.70;;;;;;5050354;28;20562;-75
2022/02/12 03:55:22;;;;;;;6.60;1.60;;;3.20;99.80;;;;;;5048617;28;20778;-75
2022/02/12 03:57:49;;;;;;;1.57;1.30;;;3.10;99.80;;;;;;5081328;28;20633;-75
2022/02/12 04:00:17;;;;;;;2.73;1.50;;;3.10;99.80;;;;;;5036257;28;20286;-75
2022/02/12 04:02:45;;;;;;;2.00;1.40;;;3.10;99.90;;;;;;5050819;28;20194;-75
2022/02/12 04:05:15;;;;;;;3.43;1.77;;;3.00;99.80;;;;;;5050131;28;20236;-76
2022/02/12 04:07:42;;;;;;;2.97;1.60;;;2.90;99.80;;;;;;5054681;28;20255;-76
2022/02/12 04:10:11;;;;;;;4.97;1.50;;;3.00;99.90;;;;;;5048618;28;20219;-75
2022/02/12 04:12:38;;;;;;;4.00;1.60;;;3.00;99.90;;;;;;5049655;28;20919;-75
2022/02/12 04:15:07;;;;;;;3.37;1.97;;;2.90;99.90;;;;;;5048187;28;20205;-75
2022/02/12 04:17:35;;;;;;;5.07;1.83;;;2.90;99.90;;;;;;5051197;28;20294;-75
2022/02/12 04:20:03;;;;;;;2.83;1.50;;;2.80;99.90;;;;;;5055393;28;20193;-75
2022/02/12 04:22:33;;;;;;;3.77;1.73;;;2.80;99.90;;;;;;5049499;28;20247;-76
2022/02/12 04:25:02;;;;;;;2.10;1.60;;;2.80;99.90;;;;;;5042778;28;20222;-76
2022/02/12 04:27:29;;;;;;;3.43;1.50;;;2.80;99.90;;;;;;5057143;28;20653;-76
2022/02/12 04:29:57;;;;;;;2.93;1.40;;;2.70;99.90;;;;;;5073041;28;20320;-76
2022/02/12 04:32:26;;;;;;;2.23;1.33;;;2.70;99.90;;;;;;5048601;28;20205;-76
2022/02/12 04:34:57;;;;;;;3.37;1.60;;;2.70;99.90;;;;;;5039519;28;20210;-76
2022/02/12 04:37:24;;;;;;;4.40;1.97;;;2.70;99.90;;;;;;5055357;28;20205;-76
2022/02/12 04:39:53;;;;;;;4.63;1.90;;;2.70;99.90;;;;;;5053155;28;20224;-76
2022/02/12 04:42:20;;;;;;;3.77;1.87;;;2.70;99.90;;;;;;5039047;28;20205;-75
2022/02/12 04:44:49;;;;;;;5.20;2.30;;;2.70;99.90;;;;;;5038821;28;20198;-76
2022/02/12 04:47:17;;;;;;;5.30;2.00;;;2.60;99.90;;;;;;5066595;28;20286;-76
2022/02/12 04:49:44;;;;;;;4.97;2.10;;;2.60;99.90;;;;;;5040712;28;20662;-76
2022/02/12 04:52:13;;;;;;;10.37;2.37;;;2.60;99.90;;;;;;5031389;28;20705;-76
2022/02/12 04:54:41;;;;;;;4.80;2.20;;;2.60;99.90;;;;;;5031426;28;20728;-76
2022/02/12 04:57:09;;;;;;;3.63;2.20;;;2.60;99.90;;;;;;5049247;28;20677;-76
2022/02/12 04:59:37;;;;;;;3.93;1.90;;;2.60;99.90;;;;;;5035082;28;20301;-76
2022/02/12 05:02:05;;;;;;;4.03;1.70;;;2.60;99.90;;;;;;5049365;28;20561;-76
2022/02/12 05:04:33;;;;;;;7.27;1.87;;;2.50;99.90;;;;;;5050227;28;20207;-74
2022/02/12 05:07:00;;;;;;;3.57;1.70;;;2.50;99.90;;;;;;5050905;28;20553;-75
2022/02/12 05:09:27;;;;;;;2.97;1.30;;;2.50;99.90;;;;;;5049539;28;20197;-74
2022/02/12 05:11:55;;;;;;;4.23;1.60;;;3.00;99.90;;;;;;5047882;28;20554;-74
2022/02/12 05:14:24;;;;;;;3.60;1.57;;;2.50;99.90;;;;;;5049237;28;20201;-74
2022/02/12 05:16:51;;;;;;;3.00;1.40;;;2.50;99.90;;;;;;5045822;28;20697;-74
2022/02/12 05:19:18;;;;;;;3.73;1.77;;;2.50;99.90;;;;;;5083425;28;20625;-75
2022/02/12 05:21:45;;;;;;;3.13;1.40;;;2.50;99.90;;;;;;5045311;28;20205;-75
2022/02/12 05:24:15;;;;;;;3.83;1.20;;;2.50;99.90;;;;;;5052444;28;20225;-74
2022/02/12 05:26:42;;;;;;;4.07;1.40;;;2.50;99.90;;;;;;5051090;28;20338;-75
2022/02/12 05:29:09;;;;;;;4.93;1.60;;;2.50;99.90;;;;;;5057176;28;20193;-75
2022/02/12 05:31:37;;;;;;;4.17;1.50;;;2.50;99.90;;;;;;5053826;28;20303;-74
2022/02/12 05:34:05;;;;;;;2.67;1.20;;;2.60;99.90;;;;;;5050010;28;20194;-75
2022/02/12 05:36:32;;;;;;;2.87;1.30;;;2.50;99.90;;;;;;5058089;28;20209;-75
2022/02/12 05:38:59;;;;;;;2.43;1.30;;;2.50;99.90;;;;;;5058753;28;20340;-74
2022/02/12 05:41:26;;;;;;;2.10;1.40;;;2.70;99.90;;;;;;5059226;28;20449;-75
2022/02/12 05:43:53;;;;;;;3.13;1.60;;;2.50;99.90;;;;;;5091754;28;20216;-75
2022/02/12 05:46:20;;;;;;;3.63;1.87;;;2.50;99.90;;;;;;5044140;28;20603;-75
2022/02/12 05:48:49;;;;;;;1.60;1.27;;;2.50;99.90;;;;;;5058093;28;20311;-75
2022/02/12 05:51:18;;;;;;;3.97;1.60;;;2.50;99.90;;;;;;5052830;28;20723;-74
2022/02/12 05:53:45;;;;;;;4.90;1.50;;;2.40;99.90;;;;;;5051269;28;20209;-75
2022/02/12 05:56:12;;;;;;;5.90;1.70;;;2.40;99.90;;;;;;5051158;28;20198;-74
2022/02/12 05:58:39;;;;;;;6.60;1.73;;;2.40;99.90;;;;;;5037579;28;20644;-74
2022/02/12 06:01:06;;;;;;;2.63;1.77;;;2.40;99.90;;;;;;5045490;28;20201;-76
2022/02/12 06:03:33;;;;;;;2.60;1.70;;;2.40;99.90;;;;;;5052330;28;20558;-75
2022/02/12 06:06:02;;;;;;;5.23;1.60;;;2.40;99.90;;;;;;5051831;28;20198;-76
2022/02/12 06:08:29;;;;;;;6.43;1.83;;;2.40;99.90;;;;;;5053093;28;20247;-75
2022/02/12 06:10:56;;;;;;;5.13;2.00;;;2.30;99.90;;;;;;5051796;28;20240;-74
2022/02/12 06:13:23;;;;;;;3.90;1.70;;;2.30;99.90;;;;;;5048707;28;20214;-76
2022/02/12 06:15:50;;;;;;;4.23;1.63;;;2.30;99.90;;;;;;5048793;28;20225;-75
2022/02/12 06:18:17;;;;;;;7.23;1.80;;;2.30;99.90;;;;;;5051244;28;20565;-75
2022/02/12 06:20:44;;;;;;;3.33;1.27;;;2.20;99.90;;;;;;5058381;28;20279;-75
2022/02/12 06:23:13;;;;;;;7.47;1.93;;;2.40;99.90;;;;;;5059550;28;20665;-75
2022/02/12 06:25:40;;;;;;;4.80;1.53;;;2.30;99.90;;;;;;5045792;28;20836;-74
2022/02/12 06:28:07;;;;;;;1.97;1.43;;;2.30;99.90;;;;;;5049425;28;20248;-74
2022/02/12 06:30:34;;;;;;;4.93;1.63;;;2.30;99.90;;;;;;5057821;28;20306;-75
2022/02/12 06:33:01;;;;;;;6.00;1.57;;;2.20;99.90;;;;;;5051699;28;20255;-75
2022/02/12 06:35:28;;;;;;;3.17;1.07;;;2.20;99.90;;;;;;5051454;28;20201;-75
2022/02/12 06:37:56;;;;;;;8.27;1.63;;;2.30;99.90;;;;;;5050047;28;20244;-75
2022/02/12 06:40:25;;;;;;;3.00;1.77;;;2.20;99.90;;;;;;5044613;28;20296;-74
2022/02/12 06:42:53;;;;;;;3.33;1.77;;;2.20;99.90;;;;;;5050985;28;20197;-75
2022/02/12 06:45:20;;;;;;;5.20;2.37;;;2.30;99.90;;;;;;5049723;28;20205;-75
2022/02/12 06:47:50;;;;;;;9.43;2.33;;;2.30;99.90;;;;;;5051158;28;20194;-75
2022/02/12 06:50:17;;;;;;;8.23;2.13;;;2.30;99.90;;;;;;5071169;28;20628;-75
2022/02/12 06:52:44;;;;;;;6.83;2.33;;;2.40;99.90;;;;;;5046037;28;20186;-75
2022/02/12 06:55:11;;;;;;;5.07;1.87;;;2.40;99.90;;;;;;5049072;28;20201;-75
2022/02/12 06:57:40;;;;;;;2.03;1.50;;;2.40;99.90;;;;;;5051140;28;20213;-75
2022/02/12 07:00:08;;;;;;;5.07;1.90;;;2.40;99.90;;;;;;5037281;28;20190;-75
2022/02/12 07:02:35;;;;;;;5.53;1.87;;;2.40;99.90;;;;;;5050749;28;20240;-76
2022/02/12 07:05:04;;;;;;;4.07;1.50;;;2.40;99.90;;;;;;5084868;28;20659;-75
2022/02/12 07:07:31;;;;;;;10.80;2.80;;;2.40;99.90;;;;;;5051333;28;20529;-75
2022/02/12 07:09:58;;;;;;;7.47;2.07;;;2.40;99.90;;;;;;5051157;28;20225;-75
2022/02/12 07:12:25;;;;;;;2.87;1.60;;;2.50;99.90;;;;;;5050985;28;20208;-75
2022/02/12 07:14:54;;;;;;;8.87;2.07;;;2.50;99.90;;;;;;5050773;28;20251;-74
2022/02/12 07:17:21;;;;;;;3.63;1.80;;;2.50;99.90;;;;;;5049535;28;20645;-75
2022/02/12 07:19:48;;;;;;;2.83;1.40;;;2.50;99.90;;;;;;5081688;28;20236;-75
2022/02/12 07:22:15;;;;;;;7.27;2.10;;;2.60;99.90;;;;;;5051796;28;20293;-75
2022/02/12 07:24:42;;;;;;;3.43;1.90;;;2.60;99.90;;;;;;5050139;28;20200;-74
2022/02/12 07:27:09;;;;;;;7.00;2.40;;;2.70;99.90;;;;;;5048908;28;20252;-75
2022/02/12 07:29:36;;;;;;;5.93;2.20;;;2.70;99.90;;;;;;5046089;28;20216;-75
2022/02/12 07:32:05;;;;;;;3.97;1.60;;;2.70;99.90;;;;;;5049593;28;20189;-75
2022/02/12 07:34:32;;;;;;;6.37;1.93;;;2.70;99.90;;;;;;5048110;28;20247;-75
2022/02/12 07:36:59;;;;;;;3.80;2.23;;;2.70;99.90;;;;;;5051339;28;20284;-75
2022/02/12 07:39:27;;;;;;;7.23;2.07;;;2.70;99.90;;;;;;5049896;28;20216;-75
2022/02/12 07:41:54;;;;;;;4.30;1.93;;;2.70;99.90;;;;;;5050986;28;20197;-75
2022/02/12 07:44:21;;;;;;;7.17;2.10;;;2.70;99.90;;;;;;5051491;28;20569;-75
2022/02/12 07:46:48;;;;;;;4.20;1.67;;;2.70;99.90;;;;;;5046676;28;20657;-75
2022/02/12 07:49:17;;;;;;;9.77;2.23;;;2.80;99.90;;;;;;5049522;28;20202;-75
2022/02/12 07:51:44;;;;;;;6.77;2.37;;;2.80;99.90;;;;;;5051729;28;20242;-75
2022/02/12 07:54:13;;;;;;;8.87;2.50;;;2.80;99.90;;;;;;5076719;28;20263;-76
2022/02/12 07:56:40;;;;;;;9.67;2.73;;;2.80;99.90;;;;;;5050268;28;20225;-75
2022/02/12 07:59:08;;;;;;;6.80;2.30;;;2.90;99.90;;;;;;5039351;28;20690;-74
2022/02/12 08:01:35;;;;;;;6.40;2.70;;;2.90;99.90;;;;;;5047469;28;20635;-74
2022/02/12 08:04:02;;;;;;;15.87;2.80;;;2.90;99.90;;;;;;5050768;28;20281;-75
2022/02/12 08:09:15;;;;;;;11.40;3.57;;;3.00;99.90;;;;;;5052199;28;20573;-75
2022/02/12 08:11:43;;;;;;;7.10;2.50;;;3.10;99.90;;;;;;5048567;28;20661;-75
2022/02/12 08:14:10;;;;;;;4.63;2.57;;;3.10;99.90;;;;;;5046294;28;20278;-74
2022/02/12 08:16:37;;;;;;;5.97;2.80;;;3.20;99.90;;;;;;5048718;28;20201;-75
2022/02/12 08:19:04;;;;;;;8.63;2.33;;;3.20;99.90;;;;;;5051863;28;20640;-75
2022/02/12 08:21:36;;;;;;;5.17;2.33;;;3.20;99.90;;;;;;5050160;28;20204;-75
2022/02/12 08:24:03;;;;;;;7.80;2.57;;;3.30;99.90;;;;;;5051108;28;20251;-75
2022/02/12 08:26:30;;;;;;;6.20;2.73;;;3.30;99.90;;;;;;5050052;28;20360;-75
2022/02/12 08:28:57;;;;;;;7.77;2.60;;;3.30;99.90;;;;;;5048308;28;20201;-74
2022/02/12 08:31:24;;;;;;;5.80;2.63;;;3.30;99.90;;;;;;5048402;28;20255;-74
2022/02/12 08:33:51;;;;;;;8.70;2.67;;;3.30;99.90;;;;;;5049441;28;20244;-74
2022/02/12 08:36:18;;;;;;;5.00;2.50;;;3.40;99.90;;;;;;5047903;28;20204;-74
2022/02/12 08:38:46;;;;;;;8.53;2.97;;;3.40;99.90;;;;;;5048355;28;20274;-75
2022/02/12 08:41:13;;;;;;;10.33;2.77;;;3.50;99.90;;;;;;5048256;28;20259;-75
2022/02/12 08:43:40;;;;;;;6.10;2.60;;;3.50;99.90;;;;;;5049868;28;20564;-76
2022/02/12 08:46:09;;;;;;;7.57;2.90;;;3.50;99.90;;;;;;5080984;28;20545;-76
2022/02/12 08:48:36;;;;;;;6.83;2.70;;;3.60;99.90;;;;;;5054059;28;20246;-76
2022/02/12 08:51:07;;;;;;;6.80;3.03;;;3.60;99.90;;;;;;5049860;28;20255;-76
2022/02/12 08:53:34;;;;;;;7.07;3.10;;;3.70;99.90;;;;;;5052786;28;20189;-75
2022/02/12 08:56:03;;;;;;;8.00;2.80;;;3.60;99.90;;;;;;5050561;28;20221;-76
2022/02/12 08:58:31;;;;;;;6.37;2.63;;;3.70;99.90;;;;;;5052657;28;20208;-76
2022/02/12 09:01:29;;;;;;;8.97;3.10;;;3.70;99.90;;;;;;5084812;28;20209;-74
2022/02/12 09:04:12;;;;;;;6.77;3.17;;;3.70;99.90;;;;;;5054967;28;20209;-73
2022/02/12 09:06:40;;;;;;;10.43;2.77;;;3.80;99.90;;;;;;5061625;28;20197;-76
2022/02/12 09:09:09;;;;;;;13.50;3.47;;;3.80;99.90;;;;;;5047799;28;20420;-76
2022/02/12 09:11:40;;;;;;;6.43;3.10;;;3.90;99.90;;;;;;5053917;28;20289;-75
2022/02/12 09:14:07;;;;;;;7.83;3.40;;;4.00;99.90;;;;;;5052224;28;20251;-75
2022/02/12 09:16:35;;;;;;;11.73;3.40;;;4.00;99.90;;;;;;5052666;28;20301;-75
2022/02/12 09:19:03;;;;;;;11.43;3.30;;;4.00;99.90;;;;;;5049950;28;20210;-75
2022/02/12 09:21:30;;;;;;;8.97;3.33;;;4.00;99.90;;;;;;5042948;28;20205;-75
2022/02/12 09:23:57;;;;;;;10.10;3.37;;;4.10;99.90;;;;;;5055242;28;20209;-75
2022/02/12 09:26:30;;;;;;;8.20;3.70;;;4.10;99.90;;;;;;5061796;28;20212;-75
2022/02/12 09:28:58;;;;;;;11.07;3.80;;;4.10;99.90;;;;;;5046013;28;20197;-75
2022/02/12 09:31:26;;;;;;;6.47;3.27;;;4.10;99.90;;;;;;5059835;28;20224;-75
2022/02/12 09:33:53;;;;;;;11.33;3.10;;;4.10;99.90;;;;;;5043626;28;20288;-75
2022/02/12 09:36:23;;;;;;;13.40;3.77;;;4.20;99.90;;;;;;5061101;28;20197;-75
2022/02/12 09:38:50;;;;;;;10.23;3.40;;;4.30;99.90;;;;;;5062503;28;20234;-75
2022/02/12 09:41:20;;;;;;;7.43;3.20;;;4.30;99.90;;;;;;5062019;28;20651;-75
2022/02/12 09:43:49;;;;;;;11.30;3.80;;;4.30;99.90;;;;;;5063727;28;20197;-75
2022/02/12 09:46:42;;;;;;;9.13;2.90;;;4.30;99.90;;;;;;5039167;28;20228;-74
2022/02/12 09:49:09;;;;;;;7.43;3.00;;;4.30;99.90;;;;;;5042173;28;20244;-74
2022/02/12 09:51:38;;;;;;;7.47;3.37;;;4.40;99.90;;;;;;5051948;28;20214;-74
2022/02/12 09:54:05;;;;;;;11.63;3.40;;;4.50;99.90;;;;;;5084845;28;20209;-75
2022/02/12 09:56:34;;;;;;;7.30;2.97;;;4.60;99.90;;;;;;5051432;28;20280;-75
2022/02/12 09:59:01;;;;;;;12.07;3.50;;;4.70;99.90;;;;;;5042281;28;20556;-74
2022/02/12 10:01:29;;;;;;;6.43;2.73;;;4.70;99.90;;;;;;5047360;28;20260;-75
2022/02/12 10:03:57;;;;;;;8.33;3.03;;;4.80;99.90;;;;;;5053945;28;20401;-75
2022/02/12 10:06:39;;;;;;;8.93;3.07;;;4.90;99.90;;;;;;5049909;28;20271;-75
2022/02/12 10:09:07;;;;;;;8.70;2.80;;;5.00;99.90;;;;;;5046156;28;20190;-75
2022/02/12 10:11:42;;;;;;;8.67;2.90;;;5.20;99.90;;;;;;5048961;28;20281;-75
2022/02/12 10:14:10;;;;;;;6.53;2.60;;;5.30;99.90;;;;;;5055786;28;20319;-76
2022/02/12 10:16:52;;;;;;;8.47;3.20;;;5.40;99.90;;;;;;5046670;28;20198;-75
2022/02/12 10:19:32;;;;;;;6.07;2.93;;;5.50;99.90;;;;;;5046799;28;20309;-76
2022/02/12 10:22:15;;;;;;;6.97;3.00;;;5.60;99.90;;;;;;5056534;28;20193;-75
2022/02/12 10:24:47;;;;;;;4.87;2.40;;;5.80;99.90;;;;;;5054691;28;20724;-75
2022/02/12 10:27:14;;;;;;;8.07;2.97;;;6.00;99.90;;;;;;5049471;28;20201;-75
2022/02/12 10:29:45;;;;;;;12.17;3.23;;;6.20;99.90;;;;;;5053333;28;20200;-76
2022/02/12 10:32:12;;;;;;;7.90;2.50;;;6.30;99.60;;;;;;5050725;28;20277;-75
2022/02/12 10:34:46;;;;;;;9.00;2.73;;;6.20;98.90;;;;;;5046984;28;20201;-75
2022/02/12 10:37:14;;;;;;;7.43;3.03;;;6.20;98.60;;;;;;5040372;28;20275;-74
2022/02/12 10:39:54;;;;;;;8.67;2.83;;;6.30;98.30;;;;;;5044042;28;20222;-75
2022/02/12 10:42:22;;;;;;;12.80;4.93;;;6.20;97.80;;;;;;5041604;28;20277;-74
2022/02/12 10:44:52;;;;;;;9.93;2.73;;;6.10;97.20;;;;;;5049989;28;20246;-75
2022/02/12 10:47:20;;;;;;;5.73;2.33;;;6.20;97.30;;;;;;5048577;28;20193;-75
2022/02/12 10:49:49;;;;;;;10.37;2.50;;;6.20;96.70;;;;;;5049361;28;20199;-75
2022/02/12 10:52:18;;;;;;;11.03;2.20;;;6.20;96.20;;;;;;5054292;28;20201;-75
2022/02/12 10:54:47;;;;;;;3.87;2.10;;;6.20;95.80;;;;;;5049355;28;20210;-75
2022/02/12 10:57:16;;;;;;;6.10;2.47;;;6.40;96.20;;;;;;5056335;28;20661;-75
2022/02/12 10:59:46;;;;;;;6.60;2.30;;;6.60;96.40;;;;;;5041182;28;20508;-76
2022/02/12 11:02:18;;;;;;;5.00;2.47;;;6.70;94.90;;;;;;5041839;28;20265;-76
2022/02/12 11:04:53;;;;;;;3.53;1.70;;;6.70;94.30;;;;;;5049734;28;20277;-75
2022/02/12 11:07:20;;;;;;;9.23;2.17;;;6.70;94.10;;;;;;5050859;28;20216;-76
2022/02/12 11:09:48;;;;;;;6.60;2.30;;;6.70;93.90;;;;;;5049120;28;20407;-75
2022/02/12 11:12:19;;;;;;;7.90;2.17;;;6.80;94.00;;;;;;5051209;28;20189;-76
2022/02/12 11:14:48;;;;;;;3.33;2.20;;;6.90;94.30;;;;;;5050315;28;20814;-76
2022/02/12 11:17:18;;;;;;;13.77;2.83;;;6.90;94.00;;;;;;5047176;28;20251;-76
2022/02/12 11:19:48;;;;;;;6.20;2.30;;;7.00;93.30;;;;;;5048558;28;20621;-75
2022/02/12 11:22:18;;;;;;;5.83;2.07;;;7.00;93.10;;;;;;5049717;28;20291;-76
2022/02/12 11:24:47;;;;;;;7.40;2.57;;;6.90;93.30;;;;;;5048800;28;20606;-76
2022/02/12 11:27:20;;;;;;;7.20;2.30;;;6.80;93.20;;;;;;5049594;28;20571;-76
2022/02/12 11:29:50;;;;;;;4.70;1.90;;;6.80;92.00;;;;;;5050728;28;20239;-75
2022/02/12 11:32:21;;;;;;;4.20;2.00;;;6.80;91.90;;;;;;5049071;28;20744;-74
2022/02/12 11:35:23;;;;;;;2.97;2.03;;;6.70;91.00;;;;;;5052074;28;20195;-77
2022/02/12 11:37:53;;;;;;;7.60;2.37;;;6.80;91.50;;;;;;5042974;28;20642;-77
2022/02/12 11:40:23;;;;;;;4.33;2.33;;;6.80;91.30;;;;;;5055248;28;20214;-77
2022/02/12 11:42:53;;;;;;;3.77;2.00;;;6.80;90.70;;;;;;5044836;28;20683;-78
2022/02/12 11:45:29;;;;;;;4.37;2.03;;;6.80;91.10;;;;;;5047720;28;20215;-76
2022/02/12 11:48:19;;;;;;;5.17;2.10;;;6.80;90.40;;;;;;5051439;28;20576;-77
2022/02/12 11:50:52;;;;;;;8.53;2.33;;;6.80;90.30;;;;;;5051067;28;20222;-76
2022/02/12 11:53:38;;;;;;;7.97;2.20;;;6.70;89.90;;;;;;5053398;28;20291;-76
2022/02/12 11:56:10;;;;;;;2.90;1.93;;;6.60;89.00;;;;;;5062220;28;20206;-77
2022/02/12 11:59:02;;;;;;;4.83;1.93;;;6.60;88.70;;;;;;5050998;28;20667;-77
2022/02/12 12:01:53;;;;;;;6.87;2.00;;;6.50;89.80;;;;;;5027699;28;20690;-77
2022/02/12 12:04:46;;;;;;;3.07;1.40;;;6.60;88.80;;;;;;5044438;28;20712;-77
2022/02/12 12:07:14;;;;;;;3.43;2.00;;;6.50;88.70;;;;;;5058699;28;20289;-77
2022/02/12 12:10:11;;;;;;;7.43;1.90;;;6.40;89.20;;;;;;5052824;28;20310;-77
2022/02/12 12:12:39;;;;;;;3.57;1.83;;;6.40;90.00;;;;;;5050764;28;20285;-77
2022/02/12 12:15:26;;;;;;;7.80;1.90;;;6.50;90.10;;;;;;5058125;28;20212;-77
2022/02/12 12:17:58;;;;;;;5.27;2.43;;;6.60;90.30;;;;;;5051696;28;20202;-78
2022/02/12 12:20:36;;;;;;;2.47;1.60;;;6.60;90.00;;;;;;5060142;28;20207;-76
2022/02/12 12:23:05;;;;;;;9.40;1.97;;;6.80;90.30;;;;;;5051707;28;20186;-77
2022/02/12 12:25:55;;;;;;;5.13;1.57;;;6.80;87.40;;;;;;5054689;28;20204;-77
2022/02/12 12:28:27;;;;;;;6.00;1.80;;;6.70;85.10;;;;;;5060868;28;20633;-77
2022/02/12 12:30:54;;;;;;;5.03;1.93;;;6.60;85.10;;;;;;5048635;28;20689;-76
2022/02/12 12:33:21;;;;;;;2.63;1.43;;;6.50;86.10;;;;;;5054440;28;20219;-77
2022/02/12 12:35:52;;;;;;;4.50;2.10;;;6.40;87.20;;;;;;5060853;28;20199;-77
2022/02/12 12:38:20;;;;;;;3.47;1.97;;;6.40;88.10;;;;;;5044294;28;20207;-77
2022/02/12 12:40:48;;;;;;;2.83;1.50;;;6.50;88.70;;;;;;5051507;28;20264;-77
2022/02/12 12:43:17;;;;;;;5.13;1.90;;;6.50;89.30;;;;;;5050776;28;20290;-77
2022/02/12 12:45:45;;;;;;;6.37;2.13;;;6.50;89.80;;;;;;5082521;28;20194;-77
2022/02/12 12:48:13;;;;;;;2.23;1.60;;;6.60;89.70;;;;;;5044484;28;20279;-77
2022/02/12 12:50:42;;;;;;;5.77;1.57;;;6.60;90.00;;;;;;5044402;28;20196;-77
2022/02/12 12:53:11;;;;;;;4.73;1.90;;;6.50;88.40;;;;;;5040654;28;20232;-77
2022/02/12 12:55:45;;;;;;;8.77;1.90;;;6.50;86.80;;;;;;5051948;28;20207;-77
2022/02/12 12:58:15;;;;;;;4.80;1.80;;;6.50;86.90;;;;;;5075318;28;20199;-76
2022/02/12 13:00:44;;;;;;;6.50;2.23;;;6.50;87.20;;;;;;5043523;28;20216;-77
2022/02/12 13:03:11;;;;;;;7.73;1.90;;;6.50;86.90;;;;;;5039165;28;20311;-78
2022/02/12 13:05:38;;;;;;;4.37;1.50;;;6.50;87.50;;;;;;5041453;28;20204;-77
2022/02/12 13:08:07;;;;;;;6.50;1.73;;;6.50;88.20;;;;;;5049656;28;20232;-76
2022/02/12 13:10:36;;;;;;;4.00;1.97;;;6.60;88.60;;;;;;5058312;28;20205;-76
2022/02/12 13:13:14;;;;;;;3.83;1.90;;;6.60;88.80;;;;;;5040391;28;20191;-77